Minneapolis, Minnesota
Traffic Map
Current Weather Conditions
Minneapolis, Minnesota
Overcast Light Rain
Overcast

Feels Like: -2°
Wind Chill: -2° Ceiling: 800
Heat Index: Visibility: 3mi
Dew Point: Wind: 13mph
Humidity: 89% Direction: 130° (SE)
Pressure: 29.62in Gusts: 0mph
Raw Report DataKMSP 221753Z 13011KT 3SM -RA BR OVC008 02/01 A2962 RMK AO2 SFC VIS 4 SLP038 P0001 60003 T00220006 10028 20022 56013
Traffic Incident Summary
Active as of:
Severity:
Category:
InformationThere was an issue retrieving the traffic information for this location. Please try a different location or try again shortly.
Advertisements
Track Severe Weather on mobile